Seadream 1 — C6PW8 — position and weather

sailwx.info

Track history (hours):
 
Tides and Currents Weather Stations Pressure Air Temp Water Temp Dewpoint Dewpoint Depression Visibility Wind Speed Wind Dir Waves Ship Positions

Seadream 1

Last reported at 2015-Sep-02 16:32 UTC. Time now 2015-Sep-02 16:59 UTC.
Position N 37°27' E 025°19'.

Length 105 m; draft 4.3 m.

Type: Ship. MMSI: 308908000.

Date/timePositionNaut miles runAvg speedWind from/ knotsBaromVisibWave heightAir tempDewpointWater temp
2015-Sep-02 16:32N 37°27' E 025°19'0 0.0
2015-Sep-02 15:33N 37°27' E 025°19'0 0.0
2015-Sep-02 14:33N 37°27' E 025°19'0 0.0
2015-Sep-02 13:31N 37°27' E 025°19'0 0.0
2015-Sep-02 12:32N 37°27' E 025°19'0 0.0
2015-Sep-02 11:33N 37°27' E 025°19'0 0.0
2015-Sep-02 10:33N 37°27' E 025°19'0 0.0
2015-Sep-02 09:31N 37°27' E 025°19'0 0.0
2015-Sep-02 08:31N 37°27' E 025°19'0 0.0
2015-Sep-02 07:32N 37°27' E 025°19'0 0.0
2015-Sep-02 06:33N 37°27' E 025°19'0 0.0
2015-Sep-02 05:33N 37°27' E 025°19'0 0.0
2015-Sep-02 04:33N 37°27' E 025°19'6 6.4
2015-Sep-02 03:34N 37°31' E 025°25'1010.4
2015-Sep-02 02:34N 37°35' E 025°37'1110.6
2015-Sep-02 01:34N 37°39' E 025°50'1610.6
2015-Sep-02 00:05N 37°43' E 026°08'611.1
2015-Sep-01 23:33N 37°45' E 026°16'1613.1
2015-Sep-01 22:20N 37°48' E 026°36'20 0.8
2015-Aug-31 22:05N 37°27' E 026°39'9 1.3
2015-Aug-31 15:21N 37°19' E 026°34'0 0.0
2015-Aug-31 14:19N 37°19' E 026°34'0 0.0
2015-Aug-31 13:18N 37°19' E 026°34'0 0.0
2015-Aug-31 12:20N 37°19' E 026°34'31 2.6
2015-Aug-31 00:23N 37°50' E 026°26'223 5.0
2015-Aug-29 03:32N 40°59' E 028°60'  
2015-Aug-26 00:33N 37°03' E 025°51'1110.6
2015-Aug-25 23:31N 36°59' E 025°39'1313.3
2015-Aug-25 22:31N 36°54' E 025°23'19 8.5
2015-Aug-25 20:18N 37°03' E 025°02'6 6.3
2015-Aug-25 19:23N 37°05' E 025°08'0 0.0
2015-Aug-25 18:23N 37°05' E 025°08'0 0.0
2015-Aug-25 17:33N 37°05' E 025°08'0 0.1
2015-Aug-25 16:31N 37°05' E 025°08'0 0.1
2015-Aug-25 15:31N 37°05' E 025°08'0 0.1
2015-Aug-25 14:29N 37°05' E 025°08'0 0.1
2015-Aug-25 13:30N 37°05' E 025°08'0 0.1
2015-Aug-25 12:27N 37°05' E 025°08'0 0.0
2015-Aug-25 11:22N 37°05' E 025°08'0 0.0
2015-Aug-25 10:26N 37°05' E 025°08'0 0.0
2015-Aug-25 09:27N 37°05' E 025°08'0 0.0
2015-Aug-25 08:30N 37°05' E 025°08'0 0.0
2015-Aug-25 07:16N 37°05' E 025°08'0 0.0
2015-Aug-25 06:14N 37°05' E 025°08'0 0.0
2015-Aug-25 05:29N 37°05' E 025°08'0 0.0
2015-Aug-25 04:33N 37°05' E 025°08'9 9.1
2015-Aug-25 03:31N 37°01' E 024°58'29 7.2
2015-Aug-24 23:33N 36°35' E 025°15'8 7.9
2015-Aug-24 22:33N 36°27' E 025°17'8 8.1
2015-Aug-24 21:33N 36°20' E 025°22'2 1.8
2015-Aug-24 20:32N 36°20' E 025°24'0 0.0
2015-Aug-24 19:30N 36°20' E 025°24'0 0.0
2015-Aug-24 18:31N 36°20' E 025°24'0 0.0
2015-Aug-24 17:31N 36°20' E 025°24'0 0.0
2015-Aug-24 16:32N 36°20' E 025°24'1 1.2
2015-Aug-24 15:33N 36°20' E 025°23'3 3.2
2015-Aug-24 14:32N 36°24' E 025°24'0 0.0
2015-Aug-24 13:33N 36°24' E 025°24'0 0.0
2015-Aug-24 11:32N 36°24' E 025°24'0 0.0
2015-Aug-24 10:30N 36°24' E 025°24'0 0.0
2015-Aug-24 09:33N 36°24' E 025°24'0 0.1
2015-Aug-24 08:33N 36°23' E 025°24'1 0.8
2015-Aug-24 07:32N 36°24' E 025°25'0 0.0
2015-Aug-24 06:33N 36°24' E 025°25'0 0.4
2015-Aug-24 05:33N 36°24' E 025°25'8 7.6
2015-Aug-24 04:33N 36°24' E 025°16'10 9.5
2015-Aug-24 03:32N 36°29' E 025°05'8910.9
2015-Aug-23 19:20N 37°22' E 023°35'6 7.9
2015-Aug-23 18:31N 37°21' E 023°27'0 0.0
2015-Aug-23 17:32N 37°21' E 023°27'  
Track history (hours):
 
Tides and Currents Weather Stations Pressure Air Temp Water Temp Dewpoint Dewpoint Depression Visibility Wind Speed Wind Dir Waves Ship Positions

Seadream 1

Last reported at 2015-Sep-02 16:32 UTC. Time now 2015-Sep-02 16:59 UTC.
Position N 37°27' E 025°19'.

Length 105 m; draft 4.3 m.

Type: Ship. MMSI: 308908000.

Date/timePositionNaut miles runAvg speedWind from/ knotsBaromVisibWave heightAir tempDewpointWater temp
2015-Sep-02 16:32N 37°27' E 025°19'0 0.0
2015-Sep-02 15:33N 37°27' E 025°19'0 0.0
2015-Sep-02 14:33N 37°27' E 025°19'0 0.0
2015-Sep-02 13:31N 37°27' E 025°19'0 0.0
2015-Sep-02 12:32N 37°27' E 025°19'0 0.0
2015-Sep-02 11:33N 37°27' E 025°19'0 0.0
2015-Sep-02 10:33N 37°27' E 025°19'0 0.0
2015-Sep-02 09:31N 37°27' E 025°19'0 0.0
2015-Sep-02 08:31N 37°27' E 025°19'0 0.0
2015-Sep-02 07:32N 37°27' E 025°19'0 0.0
2015-Sep-02 06:33N 37°27' E 025°19'0 0.0
2015-Sep-02 05:33N 37°27' E 025°19'0 0.0
2015-Sep-02 04:33N 37°27' E 025°19'6 6.4
2015-Sep-02 03:34N 37°31' E 025°25'1010.4
2015-Sep-02 02:34N 37°35' E 025°37'1110.6
2015-Sep-02 01:34N 37°39' E 025°50'1610.6
2015-Sep-02 00:05N 37°43' E 026°08'611.1
2015-Sep-01 23:33N 37°45' E 026°16'1613.1
2015-Sep-01 22:20N 37°48' E 026°36'20 0.8
2015-Aug-31 22:05N 37°27' E 026°39'9 1.3
2015-Aug-31 15:21N 37°19' E 026°34'0 0.0
2015-Aug-31 14:19N 37°19' E 026°34'0 0.0
2015-Aug-31 13:18N 37°19' E 026°34'0 0.0
2015-Aug-31 12:20N 37°19' E 026°34'31 2.6
2015-Aug-31 00:23N 37°50' E 026°26'223 5.0
2015-Aug-29 03:32N 40°59' E 028°60'  
2015-Aug-26 00:33N 37°03' E 025°51'1110.6
2015-Aug-25 23:31N 36°59' E 025°39'1313.3
2015-Aug-25 22:31N 36°54' E 025°23'19 8.5
2015-Aug-25 20:18N 37°03' E 025°02'6 6.3
2015-Aug-25 19:23N 37°05' E 025°08'0 0.0
2015-Aug-25 18:23N 37°05' E 025°08'0 0.0
2015-Aug-25 17:33N 37°05' E 025°08'0 0.1
2015-Aug-25 16:31N 37°05' E 025°08'0 0.1
2015-Aug-25 15:31N 37°05' E 025°08'0 0.1
2015-Aug-25 14:29N 37°05' E 025°08'0 0.1
2015-Aug-25 13:30N 37°05' E 025°08'0 0.1
2015-Aug-25 12:27N 37°05' E 025°08'0 0.0
2015-Aug-25 11:22N 37°05' E 025°08'0 0.0
2015-Aug-25 10:26N 37°05' E 025°08'0 0.0
2015-Aug-25 09:27N 37°05' E 025°08'0 0.0
2015-Aug-25 08:30N 37°05' E 025°08'0 0.0
2015-Aug-25 07:16N 37°05' E 025°08'0 0.0
2015-Aug-25 06:14N 37°05' E 025°08'0 0.0
2015-Aug-25 05:29N 37°05' E 025°08'0 0.0
2015-Aug-25 04:33N 37°05' E 025°08'9 9.1
2015-Aug-25 03:31N 37°01' E 024°58'29 7.2
2015-Aug-24 23:33N 36°35' E 025°15'8 7.9
2015-Aug-24 22:33N 36°27' E 025°17'8 8.1
2015-Aug-24 21:33N 36°20' E 025°22'2 1.8
2015-Aug-24 20:32N 36°20' E 025°24'0 0.0
2015-Aug-24 19:30N 36°20' E 025°24'0 0.0
2015-Aug-24 18:31N 36°20' E 025°24'0 0.0
2015-Aug-24 17:31N 36°20' E 025°24'0 0.0
2015-Aug-24 16:32N 36°20' E 025°24'1 1.2
2015-Aug-24 15:33N 36°20' E 025°23'3 3.2
2015-Aug-24 14:32N 36°24' E 025°24'0 0.0
2015-Aug-24 13:33N 36°24' E 025°24'0 0.0
2015-Aug-24 11:32N 36°24' E 025°24'0 0.0
2015-Aug-24 10:30N 36°24' E 025°24'0 0.0
2015-Aug-24 09:33N 36°24' E 025°24'0 0.1
2015-Aug-24 08:33N 36°23' E 025°24'1 0.8
2015-Aug-24 07:32N 36°24' E 025°25'0 0.0
2015-Aug-24 06:33N 36°24' E 025°25'0 0.4
2015-Aug-24 05:33N 36°24' E 025°25'8 7.6
2015-Aug-24 04:33N 36°24' E 025°16'10 9.5
2015-Aug-24 03:32N 36°29' E 025°05'8910.9
2015-Aug-23 19:20N 37°22' E 023°35'6 7.9
2015-Aug-23 18:31N 37°21' E 023°27'0 0.0
2015-Aug-23 17:32N 37°21' E 023°27'  

Dump ship's entire track history